INDIA1 VIDP-OMDB
Flight info
| Callsign | INDIA1 |
|---|---|
| Flight time | 3h 14m |
| Altitude | 40000 |
| Route | DUDU7B DUDUM A474 NIKOT Q5 UUD J61 LAXOM L639 RASKI L301 RAGMA N571 VUSET A454 PASOV M564 PUXIL P574 IMPED |
| Aircraft | B77W/H-SADE1E2E3FGHIJ2J3J4J5J6J7M1M3P1P2P3RUWXYZ/LB1D1 |
Departure
| Time | 2026-04-24 04:23 |
|---|---|
| Airport | Indira Gandhi International Airport (VIDP) |
Arrival
| Time | 2026-04-24 07:38 |
|---|---|
| Airport | Dubai International Airport (OMDB) |
| Time | Latitude | Longitude | Altitude | Speed | Heading |
|---|---|---|---|---|---|
| 2026-04-24 04:14 | 28.57244 | 77.11371 | 754 ft | 0 kts | 122° |
| 2026-04-24 04:16 | 28.57242 | 77.11373 | 750 ft | 2 kts | 122° |
| 2026-04-24 04:17 | 28.57230 | 77.11390 | 754 ft | 3 kts | 135° |
| 2026-04-24 04:17 | 28.57180 | 77.11428 | 751 ft | 13 kts | 148° |
| 2026-04-24 04:17 | 28.57116 | 77.11498 | 751 ft | 13 kts | 124° |
| 2026-04-24 04:17 | 28.57066 | 77.11586 | 752 ft | 13 kts | 132° |
| 2026-04-24 04:18 | 28.56979 | 77.11620 | 752 ft | 14 kts | 173° |
| 2026-04-24 04:18 | 28.56885 | 77.11634 | 753 ft | 14 kts | 178° |
| 2026-04-24 04:18 | 28.56832 | 77.11560 | 753 ft | 14 kts | 274° |
| 2026-04-24 04:18 | 28.56843 | 77.11451 | 752 ft | 14 kts | 274° |
| 2026-04-24 04:19 | 28.56847 | 77.11342 | 753 ft | 14 kts | 272° |
| 2026-04-24 04:19 | 28.56850 | 77.11233 | 753 ft | 14 kts | 271° |
| 2026-04-24 04:19 | 28.56853 | 77.11124 | 756 ft | 14 kts | 271° |
| 2026-04-24 04:19 | 28.56808 | 77.11037 | 752 ft | 14 kts | 203° |
| 2026-04-24 04:20 | 28.56713 | 77.11009 | 752 ft | 14 kts | 193° |
| 2026-04-24 04:20 | 28.56617 | 77.10983 | 751 ft | 14 kts | 193° |
| 2026-04-24 04:20 | 28.56522 | 77.10957 | 754 ft | 14 kts | 193° |
| 2026-04-24 04:20 | 28.56426 | 77.10930 | 752 ft | 14 kts | 194° |
| 2026-04-24 04:21 | 28.56334 | 77.10954 | 753 ft | 14 kts | 140° |
| 2026-04-24 04:21 | 28.56299 | 77.11057 | 752 ft | 14 kts | 100° |
| 2026-04-24 04:21 | 28.56271 | 77.11166 | 751 ft | 14 kts | 107° |
| 2026-04-24 04:21 | 28.56244 | 77.11277 | 754 ft | 14 kts | 105° |
| 2026-04-24 04:22 | 28.56217 | 77.11387 | 751 ft | 14 kts | 105° |
| 2026-04-24 04:22 | 28.56187 | 77.11497 | 752 ft | 14 kts | 117° |
| 2026-04-24 04:22 | 28.56140 | 77.11557 | 752 ft | 15 kts | 145° |
| 2026-04-24 04:22 | 28.56047 | 77.11556 | 753 ft | 15 kts | 226° |
| 2026-04-24 04:23 | 28.56052 | 77.11399 | 749 ft | 36 kts | 286° |
| 2026-04-24 04:23 | 28.56204 | 77.10742 | 754 ft | 141 kts | 284° |
| 2026-04-24 04:23 | 28.56523 | 77.09368 | 1123 ft | 205 kts | 284° |
| 2026-04-24 04:23 | 28.56928 | 77.07652 | 1917 ft | 239 kts | 284° |
| 2026-04-24 04:24 | 28.57365 | 77.05760 | 3076 ft | 255 kts | 284° |
| 2026-04-24 04:24 | 28.57741 | 77.04125 | 3961 ft | 261 kts | 284° |
| 2026-04-24 04:24 | 28.58183 | 77.02191 | 4992 ft | 268 kts | 285° |
| 2026-04-24 04:24 | 28.58655 | 77.00126 | 6154 ft | 270 kts | 285° |
| 2026-04-24 04:25 | 28.59104 | 76.98153 | 7185 ft | 275 kts | 285° |
| 2026-04-24 04:25 | 28.59582 | 76.96044 | 8139 ft | 277 kts | 285° |
| 2026-04-24 04:25 | 28.60070 | 76.93894 | 8796 ft | 283 kts | 285° |
| 2026-04-24 04:25 | 28.60564 | 76.91710 | 9008 ft | 288 kts | 285° |
| 2026-04-24 04:26 | 28.61048 | 76.89492 | 8990 ft | 286 kts | 281° |
| 2026-04-24 04:26 | 28.60942 | 76.87282 | 9122 ft | 290 kts | 252° |
| 2026-04-24 04:26 | 28.59920 | 76.85283 | 10074 ft | 297 kts | 231° |
| 2026-04-24 04:26 | 28.58332 | 76.83688 | 10783 ft | 319 kts | 212° |
| 2026-04-24 04:27 | 28.56161 | 76.82670 | 11060 ft | 355 kts | 199° |
| 2026-04-24 04:27 | 28.53691 | 76.81824 | 11372 ft | 384 kts | 197° |
| 2026-04-24 04:27 | 28.51074 | 76.80983 | 12182 ft | 396 kts | 197° |
| 2026-04-24 04:27 | 28.48415 | 76.80119 | 13191 ft | 403 kts | 197° |
| 2026-04-24 04:28 | 28.45712 | 76.79214 | 14207 ft | 406 kts | 198° |
| 2026-04-24 04:28 | 28.42998 | 76.78283 | 15225 ft | 409 kts | 198° |
| 2026-04-24 04:28 | 28.40262 | 76.77330 | 16224 ft | 413 kts | 199° |
| 2026-04-24 04:28 | 28.37504 | 76.76361 | 17193 ft | 417 kts | 199° |
| 2026-04-24 04:29 | 28.34714 | 76.75380 | 18140 ft | 422 kts | 199° |
| 2026-04-24 04:29 | 28.31884 | 76.74386 | 18962 ft | 427 kts | 199° |
| 2026-04-24 04:29 | 28.29032 | 76.73386 | 19770 ft | 431 kts | 199° |
| 2026-04-24 04:29 | 28.26178 | 76.72293 | 20594 ft | 435 kts | 202° |
| 2026-04-24 04:30 | 28.23342 | 76.71069 | 21421 ft | 439 kts | 203° |
| 2026-04-24 04:30 | 28.20482 | 76.69788 | 22223 ft | 443 kts | 204° |
| 2026-04-24 04:30 | 28.17639 | 76.68515 | 23004 ft | 447 kts | 204° |
| 2026-04-24 04:30 | 28.14727 | 76.67227 | 23709 ft | 452 kts | 203° |
| 2026-04-24 04:31 | 28.11771 | 76.65936 | 24340 ft | 457 kts | 203° |
| 2026-04-24 04:31 | 28.08790 | 76.64645 | 24973 ft | 461 kts | 203° |
| 2026-04-24 04:31 | 28.05782 | 76.63347 | 25597 ft | 465 kts | 203° |
| 2026-04-24 04:31 | 28.02741 | 76.62035 | 26211 ft | 470 kts | 203° |
| 2026-04-24 04:32 | 27.99719 | 76.60731 | 26815 ft | 474 kts | 203° |
| 2026-04-24 04:32 | 27.96621 | 76.59399 | 27392 ft | 478 kts | 202° |
| 2026-04-24 04:32 | 27.93495 | 76.58062 | 27984 ft | 482 kts | 202° |
| 2026-04-24 04:32 | 27.90345 | 76.56717 | 28534 ft | 486 kts | 202° |
| 2026-04-24 04:33 | 27.87172 | 76.55363 | 29036 ft | 490 kts | 202° |
| 2026-04-24 04:33 | 27.83973 | 76.53997 | 29533 ft | 494 kts | 202° |
| 2026-04-24 04:33 | 27.80749 | 76.52615 | 29980 ft | 497 kts | 203° |
| 2026-04-24 04:33 | 27.77643 | 76.50891 | 30323 ft | 498 kts | 213° |
| 2026-04-24 04:34 | 27.74759 | 76.48721 | 30694 ft | 499 kts | 217° |
| 2026-04-24 04:34 | 27.71969 | 76.46472 | 31116 ft | 499 kts | 217° |
| 2026-04-24 04:34 | 27.69146 | 76.44198 | 31588 ft | 498 kts | 217° |
| 2026-04-24 04:34 | 27.66299 | 76.41962 | 32065 ft | 498 kts | 216° |
| 2026-04-24 04:35 | 27.63435 | 76.39769 | 32544 ft | 497 kts | 215° |
| 2026-04-24 04:35 | 27.60561 | 76.37604 | 33014 ft | 497 kts | 215° |
| 2026-04-24 04:35 | 27.57680 | 76.35446 | 33452 ft | 497 kts | 215° |
| 2026-04-24 04:35 | 27.54801 | 76.33285 | 33896 ft | 496 kts | 215° |
| 2026-04-24 04:36 | 27.51934 | 76.31130 | 34306 ft | 495 kts | 215° |
| 2026-04-24 04:36 | 27.49037 | 76.29035 | 34755 ft | 493 kts | 213° |
| 2026-04-24 04:36 | 27.46113 | 76.27023 | 35207 ft | 492 kts | 212° |
| 2026-04-24 04:36 | 27.43181 | 76.25047 | 35634 ft | 490 kts | 212° |
| 2026-04-24 04:37 | 27.40260 | 76.23085 | 36052 ft | 488 kts | 212° |
| 2026-04-24 04:37 | 27.37350 | 76.21120 | 36467 ft | 487 kts | 213° |
| 2026-04-24 04:37 | 27.34455 | 76.19152 | 36875 ft | 485 kts | 213° |
| 2026-04-24 04:37 | 27.31572 | 76.17184 | 37277 ft | 484 kts | 213° |
| 2026-04-24 04:38 | 27.28694 | 76.15213 | 37682 ft | 482 kts | 213° |
| 2026-04-24 04:38 | 27.25830 | 76.13251 | 38069 ft | 481 kts | 213° |
| 2026-04-24 04:38 | 27.22982 | 76.11301 | 38469 ft | 479 kts | 213° |
| 2026-04-24 04:38 | 27.20172 | 76.09379 | 38727 ft | 479 kts | 213° |
| 2026-04-24 04:39 | 27.17320 | 76.07429 | 38951 ft | 479 kts | 213° |
| 2026-04-24 04:39 | 27.14466 | 76.05480 | 39169 ft | 480 kts | 213° |
| 2026-04-24 04:39 | 27.11616 | 76.03536 | 39403 ft | 480 kts | 213° |
| 2026-04-24 04:39 | 27.08766 | 76.01592 | 39621 ft | 480 kts | 213° |
| 2026-04-24 04:40 | 27.05915 | 75.99649 | 39802 ft | 481 kts | 213° |
| 2026-04-24 04:40 | 27.03042 | 75.97692 | 39842 ft | 484 kts | 213° |
| 2026-04-24 04:40 | 26.97287 | 75.93776 | 39896 ft | 482 kts | 213° |
| 2026-04-24 04:41 | 26.91590 | 75.89904 | 39914 ft | 476 kts | 213° |
| 2026-04-24 04:41 | 26.85937 | 75.86065 | 39910 ft | 474 kts | 213° |
| 2026-04-24 04:42 | 26.81114 | 75.83123 | 39916 ft | 476 kts | 206° |
| 2026-04-24 04:42 | 26.74926 | 75.80447 | 39913 ft | 477 kts | 203° |
| 2026-04-24 04:43 | 26.68686 | 75.77869 | 39909 ft | 479 kts | 203° |
| 2026-04-24 04:43 | 26.62441 | 75.75257 | 39911 ft | 480 kts | 203° |
| 2026-04-24 04:44 | 26.56188 | 75.72616 | 39910 ft | 481 kts | 203° |
| 2026-04-24 04:44 | 26.49918 | 75.69963 | 39907 ft | 482 kts | 203° |
| 2026-04-24 04:45 | 26.43634 | 75.67309 | 39902 ft | 483 kts | 203° |
| 2026-04-24 04:45 | 26.37383 | 75.64673 | 39897 ft | 483 kts | 203° |
| 2026-04-24 04:46 | 26.31080 | 75.62020 | 39900 ft | 483 kts | 203° |
| 2026-04-24 04:46 | 26.24782 | 75.59370 | 39900 ft | 483 kts | 203° |
| 2026-04-24 04:47 | 26.18493 | 75.56728 | 39901 ft | 483 kts | 203° |
| 2026-04-24 04:47 | 26.12202 | 75.54089 | 39900 ft | 483 kts | 203° |
| 2026-04-24 04:48 | 26.05951 | 75.51468 | 39900 ft | 482 kts | 203° |
| 2026-04-24 04:48 | 25.99673 | 75.48839 | 39903 ft | 482 kts | 203° |
| 2026-04-24 04:49 | 25.93386 | 75.46207 | 39908 ft | 482 kts | 204° |
| 2026-04-24 04:49 | 25.87585 | 75.42611 | 39910 ft | 477 kts | 219° |
| 2026-04-24 04:50 | 25.82761 | 75.37611 | 39908 ft | 473 kts | 230° |
| 2026-04-24 04:50 | 25.78415 | 75.32138 | 39901 ft | 473 kts | 231° |
| 2026-04-24 04:51 | 25.74090 | 75.26685 | 39905 ft | 473 kts | 230° |
| 2026-04-24 04:51 | 25.69702 | 75.21230 | 39906 ft | 474 kts | 230° |
| 2026-04-24 04:52 | 25.65298 | 75.15794 | 39902 ft | 474 kts | 230° |
| 2026-04-24 04:52 | 25.60884 | 75.10359 | 39908 ft | 474 kts | 230° |
| 2026-04-24 04:53 | 25.56472 | 75.04929 | 39909 ft | 474 kts | 230° |
| 2026-04-24 04:53 | 25.52051 | 74.99493 | 39900 ft | 475 kts | 230° |
| 2026-04-24 04:54 | 25.47632 | 74.94064 | 39905 ft | 475 kts | 230° |
| 2026-04-24 04:54 | 25.43237 | 74.88672 | 39908 ft | 475 kts | 230° |
| 2026-04-24 04:55 | 25.38809 | 74.83247 | 39906 ft | 475 kts | 230° |
| 2026-04-24 04:55 | 25.34376 | 74.77820 | 39908 ft | 475 kts | 230° |
| 2026-04-24 04:56 | 25.29943 | 74.72400 | 39912 ft | 475 kts | 230° |
| 2026-04-24 04:56 | 25.25509 | 74.66987 | 39913 ft | 475 kts | 230° |
| 2026-04-24 04:57 | 25.21076 | 74.61579 | 39909 ft | 475 kts | 230° |
| 2026-04-24 04:57 | 25.16664 | 74.56201 | 39906 ft | 475 kts | 230° |
| 2026-04-24 04:58 | 25.12231 | 74.50807 | 39914 ft | 475 kts | 230° |
| 2026-04-24 04:58 | 25.07793 | 74.45407 | 39914 ft | 475 kts | 230° |
| 2026-04-24 04:59 | 25.03353 | 74.40006 | 39913 ft | 475 kts | 230° |
| 2026-04-24 04:59 | 24.98942 | 74.34647 | 39913 ft | 475 kts | 230° |
| 2026-04-24 05:00 | 24.94495 | 74.29251 | 39913 ft | 475 kts | 230° |
| 2026-04-24 05:00 | 24.90055 | 74.23869 | 39919 ft | 475 kts | 230° |
| 2026-04-24 05:01 | 24.85606 | 74.18483 | 39911 ft | 475 kts | 230° |
| 2026-04-24 05:01 | 24.81155 | 74.13101 | 39923 ft | 475 kts | 230° |
| 2026-04-24 05:02 | 24.76703 | 74.07723 | 39928 ft | 475 kts | 230° |
| 2026-04-24 05:02 | 24.72241 | 74.02339 | 39933 ft | 476 kts | 230° |
| 2026-04-24 05:03 | 24.67782 | 73.96963 | 39947 ft | 476 kts | 230° |
| 2026-04-24 05:03 | 24.63315 | 73.91583 | 39946 ft | 476 kts | 230° |
| 2026-04-24 05:04 | 24.59353 | 73.85842 | 39954 ft | 473 kts | 239° |
| 2026-04-24 05:04 | 24.55874 | 73.79712 | 39935 ft | 473 kts | 240° |
| 2026-04-24 05:05 | 24.52394 | 73.73561 | 39933 ft | 474 kts | 240° |
| 2026-04-24 05:05 | 24.48888 | 73.67424 | 39926 ft | 474 kts | 239° |
| 2026-04-24 05:06 | 24.45364 | 73.61293 | 39916 ft | 474 kts | 239° |
| 2026-04-24 05:06 | 24.41840 | 73.55179 | 39927 ft | 474 kts | 239° |
| 2026-04-24 05:07 | 24.38300 | 73.49043 | 39909 ft | 475 kts | 239° |
| 2026-04-24 05:07 | 24.34789 | 73.42961 | 39926 ft | 475 kts | 239° |
| 2026-04-24 05:08 | 24.31246 | 73.36835 | 39925 ft | 475 kts | 239° |
| 2026-04-24 05:08 | 24.27706 | 73.30719 | 39919 ft | 475 kts | 239° |
| 2026-04-24 05:09 | 24.24159 | 73.24598 | 39908 ft | 476 kts | 239° |
| 2026-04-24 05:09 | 24.20609 | 73.18480 | 39901 ft | 476 kts | 239° |
| 2026-04-24 05:10 | 24.17057 | 73.12368 | 39901 ft | 476 kts | 239° |
| 2026-04-24 05:10 | 24.13502 | 73.06256 | 39898 ft | 475 kts | 239° |
| 2026-04-24 05:11 | 24.09949 | 73.00156 | 39895 ft | 475 kts | 239° |
| 2026-04-24 05:11 | 24.06414 | 72.94096 | 39891 ft | 475 kts | 239° |
| 2026-04-24 05:12 | 24.02848 | 72.87988 | 39888 ft | 475 kts | 239° |
| 2026-04-24 05:12 | 23.99284 | 72.81891 | 39891 ft | 475 kts | 239° |
| 2026-04-24 05:13 | 23.93937 | 72.72760 | 39881 ft | 476 kts | 239° |
| 2026-04-24 05:14 | 23.90366 | 72.66670 | 39885 ft | 476 kts | 239° |
| 2026-04-24 05:14 | 23.86811 | 72.60615 | 39880 ft | 476 kts | 239° |
| 2026-04-24 05:15 | 23.83229 | 72.54521 | 39883 ft | 476 kts | 239° |
| 2026-04-24 05:15 | 23.79646 | 72.48434 | 39878 ft | 476 kts | 239° |
| 2026-04-24 05:16 | 23.76059 | 72.42346 | 39877 ft | 477 kts | 239° |
| 2026-04-24 05:16 | 23.72466 | 72.36256 | 39874 ft | 477 kts | 239° |
| 2026-04-24 05:17 | 23.68871 | 72.30171 | 39872 ft | 477 kts | 239° |
| 2026-04-24 05:17 | 23.65272 | 72.24084 | 39869 ft | 478 kts | 239° |
| 2026-04-24 05:18 | 23.61665 | 72.17995 | 39872 ft | 478 kts | 239° |
| 2026-04-24 05:18 | 23.58056 | 72.11906 | 39867 ft | 478 kts | 239° |
| 2026-04-24 05:19 | 23.54444 | 72.05822 | 39870 ft | 478 kts | 238° |
| 2026-04-24 05:19 | 23.50851 | 71.99775 | 39871 ft | 478 kts | 238° |
| 2026-04-24 05:20 | 23.47233 | 71.93694 | 39874 ft | 478 kts | 238° |
| 2026-04-24 05:20 | 23.43608 | 71.87610 | 39874 ft | 478 kts | 238° |
| 2026-04-24 05:21 | 23.39985 | 71.81535 | 39875 ft | 479 kts | 238° |
| 2026-04-24 05:21 | 23.36351 | 71.75449 | 39878 ft | 479 kts | 238° |
| 2026-04-24 05:22 | 23.32718 | 71.69373 | 39879 ft | 479 kts | 238° |
| 2026-04-24 05:22 | 23.29103 | 71.63334 | 39881 ft | 479 kts | 238° |
| 2026-04-24 05:23 | 23.25463 | 71.57260 | 39877 ft | 479 kts | 238° |
| 2026-04-24 05:23 | 23.21816 | 71.51180 | 39881 ft | 479 kts | 238° |
| 2026-04-24 05:24 | 23.18165 | 71.45104 | 39884 ft | 479 kts | 238° |
| 2026-04-24 05:24 | 23.14516 | 71.39036 | 39886 ft | 480 kts | 238° |
| 2026-04-24 05:25 | 23.10862 | 71.32967 | 39888 ft | 480 kts | 238° |
| 2026-04-24 05:25 | 23.07223 | 71.26930 | 39890 ft | 480 kts | 238° |
| 2026-04-24 05:26 | 23.03557 | 71.20856 | 39892 ft | 481 kts | 238° |
| 2026-04-24 05:26 | 22.99886 | 71.14780 | 39894 ft | 481 kts | 238° |
| 2026-04-24 05:27 | 22.96233 | 71.08742 | 39897 ft | 481 kts | 238° |
| 2026-04-24 05:27 | 22.92553 | 71.02664 | 39898 ft | 481 kts | 238° |
| 2026-04-24 05:28 | 22.88871 | 70.96591 | 39899 ft | 482 kts | 238° |
| 2026-04-24 05:28 | 22.85213 | 70.90563 | 39910 ft | 482 kts | 238° |
| 2026-04-24 05:29 | 22.82072 | 70.84220 | 39910 ft | 477 kts | 254° |
| 2026-04-24 05:29 | 22.81043 | 70.77160 | 39900 ft | 474 kts | 272° |
| 2026-04-24 05:30 | 22.81508 | 70.70024 | 39907 ft | 475 kts | 275° |
| 2026-04-24 05:30 | 22.82061 | 70.62877 | 39911 ft | 477 kts | 275° |
| 2026-04-24 05:31 | 22.82558 | 70.55695 | 39909 ft | 478 kts | 274° |
| 2026-04-24 05:31 | 22.83013 | 70.48496 | 39910 ft | 479 kts | 274° |
| 2026-04-24 05:32 | 22.83457 | 70.41288 | 39912 ft | 480 kts | 274° |
| 2026-04-24 05:32 | 22.83901 | 70.34061 | 39903 ft | 480 kts | 274° |
| 2026-04-24 05:33 | 22.84343 | 70.26839 | 39910 ft | 480 kts | 274° |
| 2026-04-24 05:33 | 22.84779 | 70.19676 | 39907 ft | 479 kts | 274° |
| 2026-04-24 05:34 | 22.85431 | 70.08852 | 39909 ft | 479 kts | 274° |
| 2026-04-24 05:34 | 22.85788 | 70.02872 | 39903 ft | 478 kts | 274° |
| 2026-04-24 05:35 | 22.86287 | 69.94457 | 39902 ft | 478 kts | 274° |
| 2026-04-24 05:35 | 22.86639 | 69.88471 | 39910 ft | 478 kts | 274° |
| 2026-04-24 05:36 | 22.87060 | 69.81256 | 39899 ft | 479 kts | 274° |
| 2026-04-24 05:36 | 22.87476 | 69.74099 | 39898 ft | 479 kts | 275° |
| 2026-04-24 05:37 | 22.87900 | 69.66895 | 39902 ft | 479 kts | 275° |
| 2026-04-24 05:37 | 22.88369 | 69.59695 | 39903 ft | 479 kts | 275° |
| 2026-04-24 05:38 | 22.88843 | 69.52490 | 39903 ft | 479 kts | 275° |
| 2026-04-24 05:38 | 22.89309 | 69.45282 | 39900 ft | 479 kts | 275° |
| 2026-04-24 05:39 | 22.89768 | 69.38065 | 39905 ft | 479 kts | 275° |
| 2026-04-24 05:39 | 22.90223 | 69.30846 | 39900 ft | 479 kts | 275° |
| 2026-04-24 05:40 | 22.90675 | 69.23630 | 39906 ft | 479 kts | 275° |
| 2026-04-24 05:40 | 22.91124 | 69.16406 | 39903 ft | 480 kts | 275° |
| 2026-04-24 05:41 | 22.91570 | 69.09189 | 39900 ft | 479 kts | 275° |
| 2026-04-24 05:41 | 22.92010 | 69.02010 | 39895 ft | 479 kts | 275° |
| 2026-04-24 05:42 | 22.92448 | 68.94802 | 39907 ft | 479 kts | 275° |
| 2026-04-24 05:42 | 22.92884 | 68.87575 | 39897 ft | 479 kts | 275° |
| 2026-04-24 05:43 | 22.93316 | 68.80367 | 39896 ft | 478 kts | 275° |
| 2026-04-24 05:43 | 22.93742 | 68.73215 | 39897 ft | 478 kts | 275° |
| 2026-04-24 05:44 | 22.94167 | 68.66010 | 39900 ft | 478 kts | 275° |
| 2026-04-24 05:44 | 22.94588 | 68.58812 | 39898 ft | 478 kts | 275° |
| 2026-04-24 05:45 | 22.95007 | 68.51609 | 39899 ft | 478 kts | 275° |
| 2026-04-24 05:45 | 22.95423 | 68.44394 | 39899 ft | 478 kts | 275° |
| 2026-04-24 05:46 | 22.95814 | 68.37228 | 39896 ft | 479 kts | 273° |
| 2026-04-24 05:46 | 22.95869 | 68.29997 | 39898 ft | 479 kts | 271° |
| 2026-04-24 05:47 | 22.95834 | 68.22759 | 39897 ft | 479 kts | 271° |
| 2026-04-24 05:47 | 22.95817 | 68.15519 | 39896 ft | 480 kts | 272° |
| 2026-04-24 05:48 | 22.95816 | 68.08280 | 39896 ft | 480 kts | 272° |
| 2026-04-24 05:48 | 22.95815 | 68.01043 | 39893 ft | 480 kts | 272° |
| 2026-04-24 05:49 | 22.95809 | 67.93848 | 39895 ft | 479 kts | 272° |
| 2026-04-24 05:49 | 22.95800 | 67.86616 | 39904 ft | 479 kts | 272° |
| 2026-04-24 05:50 | 22.95810 | 67.79382 | 39894 ft | 479 kts | 272° |
| 2026-04-24 05:50 | 22.95831 | 67.72157 | 39894 ft | 479 kts | 272° |
| 2026-04-24 05:51 | 22.95846 | 67.64929 | 39900 ft | 478 kts | 272° |
| 2026-04-24 05:51 | 22.95856 | 67.57716 | 39896 ft | 478 kts | 272° |
| 2026-04-24 05:52 | 22.95861 | 67.50557 | 39894 ft | 478 kts | 272° |
| 2026-04-24 05:52 | 22.95863 | 67.43347 | 39895 ft | 477 kts | 272° |
| 2026-04-24 05:53 | 22.95863 | 67.36147 | 39893 ft | 477 kts | 272° |
| 2026-04-24 05:53 | 22.95858 | 67.28956 | 39892 ft | 477 kts | 272° |
| 2026-04-24 05:54 | 22.95851 | 67.21746 | 39891 ft | 477 kts | 272° |
| 2026-04-24 05:54 | 22.95841 | 67.14553 | 39891 ft | 477 kts | 272° |
| 2026-04-24 05:55 | 22.95827 | 67.07366 | 39899 ft | 477 kts | 272° |
| 2026-04-24 05:55 | 22.95811 | 67.00175 | 39900 ft | 477 kts | 272° |
| 2026-04-24 05:56 | 22.95803 | 66.92984 | 39891 ft | 476 kts | 273° |
| 2026-04-24 05:56 | 22.95848 | 66.85795 | 39892 ft | 476 kts | 273° |
| 2026-04-24 05:57 | 22.95901 | 66.78650 | 39896 ft | 476 kts | 273° |
| 2026-04-24 05:57 | 22.95945 | 66.71462 | 39895 ft | 477 kts | 273° |
| 2026-04-24 05:58 | 22.95981 | 66.64271 | 39892 ft | 476 kts | 273° |
| 2026-04-24 05:58 | 22.96013 | 66.57085 | 39893 ft | 477 kts | 273° |
| 2026-04-24 05:59 | 22.96041 | 66.49885 | 39891 ft | 476 kts | 273° |
| 2026-04-24 05:59 | 22.96066 | 66.42697 | 39897 ft | 476 kts | 273° |
| 2026-04-24 06:00 | 22.96088 | 66.35510 | 39892 ft | 476 kts | 273° |
| 2026-04-24 06:00 | 22.96107 | 66.28369 | 39894 ft | 476 kts | 273° |
| 2026-04-24 06:01 | 22.96123 | 66.21190 | 39893 ft | 476 kts | 273° |
| 2026-04-24 06:01 | 22.96135 | 66.13995 | 39892 ft | 476 kts | 273° |
| 2026-04-24 06:02 | 22.96145 | 66.06801 | 39891 ft | 476 kts | 273° |
| 2026-04-24 06:02 | 22.96151 | 65.99657 | 39889 ft | 476 kts | 273° |
| 2026-04-24 06:03 | 22.96154 | 65.92458 | 39891 ft | 476 kts | 273° |
| 2026-04-24 06:03 | 22.96154 | 65.85274 | 39896 ft | 476 kts | 273° |
| 2026-04-24 06:04 | 22.96150 | 65.78090 | 39902 ft | 476 kts | 273° |
| 2026-04-24 06:04 | 22.96143 | 65.70906 | 39895 ft | 476 kts | 273° |
| 2026-04-24 06:05 | 22.96133 | 65.63770 | 39893 ft | 476 kts | 273° |
| 2026-04-24 06:05 | 22.96120 | 65.56576 | 39892 ft | 476 kts | 273° |
| 2026-04-24 06:06 | 22.96103 | 65.49392 | 39893 ft | 476 kts | 273° |
| 2026-04-24 06:06 | 22.96083 | 65.42213 | 39896 ft | 476 kts | 273° |
| 2026-04-24 06:07 | 22.96060 | 65.35032 | 39898 ft | 476 kts | 273° |
| 2026-04-24 06:07 | 22.96034 | 65.27856 | 39894 ft | 475 kts | 273° |
| 2026-04-24 06:08 | 22.96005 | 65.20719 | 39892 ft | 475 kts | 273° |
| 2026-04-24 06:08 | 22.95972 | 65.13551 | 39893 ft | 475 kts | 273° |
| 2026-04-24 06:09 | 22.95937 | 65.06390 | 39894 ft | 475 kts | 273° |
| 2026-04-24 06:09 | 22.95898 | 64.99224 | 39893 ft | 475 kts | 273° |
| 2026-04-24 06:10 | 22.95856 | 64.92063 | 39892 ft | 474 kts | 273° |
| 2026-04-24 06:11 | 22.95947 | 64.81343 | 39893 ft | 472 kts | 278° |
| 2026-04-24 06:11 | 22.96692 | 64.74281 | 39897 ft | 471 kts | 280° |
| 2026-04-24 06:12 | 22.97481 | 64.67261 | 39894 ft | 471 kts | 279° |
| 2026-04-24 06:12 | 22.98247 | 64.60192 | 39892 ft | 471 kts | 279° |
| 2026-04-24 06:13 | 22.98992 | 64.53120 | 39895 ft | 471 kts | 279° |
| 2026-04-24 06:13 | 22.99728 | 64.46048 | 39896 ft | 471 kts | 279° |
| 2026-04-24 06:14 | 23.00463 | 64.38977 | 39891 ft | 471 kts | 279° |
| 2026-04-24 06:14 | 23.01190 | 64.31950 | 39892 ft | 471 kts | 279° |
| 2026-04-24 06:15 | 23.01919 | 64.24879 | 39892 ft | 471 kts | 279° |
| 2026-04-24 06:15 | 23.02645 | 64.17811 | 39894 ft | 471 kts | 279° |
| 2026-04-24 06:16 | 23.03367 | 64.10743 | 39894 ft | 471 kts | 279° |
| 2026-04-24 06:16 | 23.04086 | 64.03673 | 39896 ft | 471 kts | 279° |
| 2026-04-24 06:17 | 23.04801 | 63.96613 | 39896 ft | 470 kts | 279° |
| 2026-04-24 06:17 | 23.05513 | 63.89558 | 39894 ft | 470 kts | 279° |
| 2026-04-24 06:18 | 23.06230 | 63.82509 | 39895 ft | 469 kts | 279° |
| 2026-04-24 06:18 | 23.06969 | 63.75469 | 39895 ft | 469 kts | 279° |
| 2026-04-24 06:19 | 23.07707 | 63.68437 | 39895 ft | 468 kts | 279° |
| 2026-04-24 06:19 | 23.08434 | 63.61459 | 39892 ft | 468 kts | 279° |
| 2026-04-24 06:20 | 23.09159 | 63.54439 | 39891 ft | 468 kts | 279° |
| 2026-04-24 06:20 | 23.09880 | 63.47426 | 39894 ft | 467 kts | 279° |
| 2026-04-24 06:21 | 23.10599 | 63.40407 | 39893 ft | 467 kts | 279° |
| 2026-04-24 06:21 | 23.11314 | 63.33397 | 39896 ft | 467 kts | 279° |
| 2026-04-24 06:22 | 23.12025 | 63.26389 | 39896 ft | 466 kts | 279° |
| 2026-04-24 06:22 | 23.12733 | 63.19378 | 39893 ft | 466 kts | 278° |
| 2026-04-24 06:23 | 23.13437 | 63.12383 | 39894 ft | 466 kts | 278° |
| 2026-04-24 06:23 | 23.14135 | 63.05414 | 39892 ft | 466 kts | 278° |
| 2026-04-24 06:24 | 23.14833 | 62.98415 | 39893 ft | 466 kts | 278° |
| 2026-04-24 06:24 | 23.15527 | 62.91415 | 39894 ft | 466 kts | 278° |
| 2026-04-24 06:25 | 23.16219 | 62.84415 | 39895 ft | 466 kts | 278° |
| 2026-04-24 06:25 | 23.16902 | 62.77466 | 39893 ft | 465 kts | 278° |
| 2026-04-24 06:26 | 23.17587 | 62.70474 | 39894 ft | 465 kts | 278° |
| 2026-04-24 06:26 | 23.18268 | 62.63481 | 39890 ft | 465 kts | 278° |
| 2026-04-24 06:27 | 23.18945 | 62.56495 | 39894 ft | 465 kts | 278° |
| 2026-04-24 06:27 | 23.19619 | 62.49510 | 39892 ft | 464 kts | 278° |
| 2026-04-24 06:28 | 23.20291 | 62.42526 | 39887 ft | 464 kts | 278° |
| 2026-04-24 06:28 | 23.20958 | 62.35551 | 39888 ft | 464 kts | 278° |
| 2026-04-24 06:29 | 23.21621 | 62.28579 | 39887 ft | 464 kts | 278° |
| 2026-04-24 06:29 | 23.22277 | 62.21653 | 39887 ft | 463 kts | 278° |
| 2026-04-24 06:30 | 23.22934 | 62.14682 | 39888 ft | 463 kts | 278° |
| 2026-04-24 06:30 | 23.23589 | 62.07711 | 39887 ft | 463 kts | 278° |
| 2026-04-24 06:31 | 23.24134 | 62.01874 | 39890 ft | 463 kts | 278° |
| 2026-04-24 06:31 | 23.24777 | 61.94957 | 39888 ft | 463 kts | 278° |
| 2026-04-24 06:32 | 23.25422 | 61.87988 | 39887 ft | 463 kts | 278° |
| 2026-04-24 06:32 | 23.26063 | 61.81026 | 39888 ft | 463 kts | 278° |
| 2026-04-24 06:33 | 23.26702 | 61.74061 | 39885 ft | 462 kts | 278° |
| 2026-04-24 06:33 | 23.27336 | 61.67106 | 39882 ft | 462 kts | 278° |
| 2026-04-24 06:34 | 23.27968 | 61.60148 | 39884 ft | 462 kts | 278° |
| 2026-04-24 06:34 | 23.28596 | 61.53192 | 39885 ft | 462 kts | 278° |
| 2026-04-24 06:35 | 23.29216 | 61.46287 | 39882 ft | 461 kts | 278° |
| 2026-04-24 06:35 | 23.29837 | 61.39343 | 39882 ft | 461 kts | 278° |
| 2026-04-24 06:36 | 23.30455 | 61.32403 | 39881 ft | 460 kts | 278° |
| 2026-04-24 06:36 | 23.31068 | 61.25475 | 39883 ft | 460 kts | 278° |
| 2026-04-24 06:37 | 23.31679 | 61.18549 | 39879 ft | 460 kts | 278° |
| 2026-04-24 06:37 | 23.32457 | 61.11655 | 39880 ft | 458 kts | 280° |
| 2026-04-24 06:38 | 23.33373 | 61.04794 | 39877 ft | 458 kts | 280° |
| 2026-04-24 06:38 | 23.34264 | 60.97929 | 39879 ft | 457 kts | 280° |
| 2026-04-24 06:39 | 23.35118 | 60.91121 | 39880 ft | 457 kts | 280° |
| 2026-04-24 06:39 | 23.35969 | 60.84263 | 39879 ft | 457 kts | 280° |
| 2026-04-24 06:40 | 23.36818 | 60.77415 | 39878 ft | 456 kts | 280° |
| 2026-04-24 06:40 | 23.37664 | 60.70575 | 39877 ft | 456 kts | 279° |
| 2026-04-24 06:41 | 23.38858 | 60.63819 | 39884 ft | 454 kts | 287° |
| 2026-04-24 06:41 | 23.40973 | 60.57364 | 39890 ft | 452 kts | 292° |
| 2026-04-24 06:42 | 23.43320 | 60.51055 | 39875 ft | 452 kts | 293° |
| 2026-04-24 06:42 | 23.45671 | 60.44709 | 39872 ft | 452 kts | 292° |
| 2026-04-24 06:43 | 23.48004 | 60.38346 | 39873 ft | 452 kts | 292° |
| 2026-04-24 06:43 | 23.50325 | 60.31978 | 39875 ft | 452 kts | 292° |
| 2026-04-24 06:44 | 23.52641 | 60.25607 | 39872 ft | 452 kts | 292° |
| 2026-04-24 06:44 | 23.54960 | 60.19225 | 39877 ft | 452 kts | 292° |
| 2026-04-24 06:45 | 23.57273 | 60.12848 | 39872 ft | 452 kts | 292° |
| 2026-04-24 06:45 | 23.59586 | 60.06462 | 39871 ft | 452 kts | 292° |
| 2026-04-24 06:46 | 23.61881 | 60.00116 | 39871 ft | 452 kts | 292° |
| 2026-04-24 06:46 | 23.64168 | 59.93784 | 39871 ft | 452 kts | 292° |
| 2026-04-24 06:47 | 23.66469 | 59.87405 | 39869 ft | 451 kts | 292° |
| 2026-04-24 06:47 | 23.68766 | 59.81028 | 39869 ft | 451 kts | 292° |
| 2026-04-24 06:48 | 23.71057 | 59.74656 | 39867 ft | 451 kts | 292° |
| 2026-04-24 06:48 | 23.73345 | 59.68281 | 39869 ft | 451 kts | 292° |
| 2026-04-24 06:49 | 23.75628 | 59.61914 | 39868 ft | 450 kts | 292° |
| 2026-04-24 06:49 | 23.77908 | 59.55545 | 39870 ft | 450 kts | 292° |
| 2026-04-24 06:50 | 23.80184 | 59.49176 | 39869 ft | 450 kts | 292° |
| 2026-04-24 06:50 | 23.82458 | 59.42803 | 39865 ft | 450 kts | 292° |
| 2026-04-24 06:51 | 23.84724 | 59.36444 | 39867 ft | 450 kts | 292° |
| 2026-04-24 06:51 | 23.86975 | 59.30119 | 39865 ft | 449 kts | 292° |
| 2026-04-24 06:52 | 23.89236 | 59.23754 | 39866 ft | 449 kts | 292° |
| 2026-04-24 06:52 | 23.91496 | 59.17383 | 39864 ft | 449 kts | 292° |
| 2026-04-24 06:53 | 23.93720 | 59.11006 | 39868 ft | 449 kts | 290° |
| 2026-04-24 06:53 | 23.95786 | 59.04564 | 39862 ft | 449 kts | 290° |
| 2026-04-24 06:54 | 23.97828 | 58.98110 | 39863 ft | 449 kts | 290° |
| 2026-04-24 06:54 | 23.99884 | 58.91666 | 39861 ft | 449 kts | 290° |
| 2026-04-24 06:55 | 24.01948 | 58.85223 | 39864 ft | 449 kts | 290° |
| 2026-04-24 06:55 | 24.03995 | 58.78826 | 39866 ft | 448 kts | 290° |
| 2026-04-24 06:56 | 24.06054 | 58.72378 | 39866 ft | 448 kts | 290° |
| 2026-04-24 06:56 | 24.08108 | 58.65935 | 39865 ft | 448 kts | 290° |
| 2026-04-24 06:57 | 24.10160 | 58.59489 | 39868 ft | 448 kts | 290° |
| 2026-04-24 06:57 | 24.12205 | 58.53045 | 39863 ft | 448 kts | 290° |
| 2026-04-24 06:58 | 24.14243 | 58.46601 | 39862 ft | 448 kts | 290° |
| 2026-04-24 06:58 | 24.16281 | 58.40146 | 39861 ft | 448 kts | 290° |
| 2026-04-24 06:59 | 24.18300 | 58.33743 | 39863 ft | 447 kts | 290° |
| 2026-04-24 06:59 | 24.20328 | 58.27301 | 39865 ft | 447 kts | 290° |
| 2026-04-24 07:00 | 24.22351 | 58.20865 | 39865 ft | 447 kts | 290° |
| 2026-04-24 07:00 | 24.24374 | 58.14418 | 39865 ft | 446 kts | 290° |
| 2026-04-24 07:01 | 24.26390 | 58.07982 | 39867 ft | 446 kts | 290° |
| 2026-04-24 07:01 | 24.28400 | 58.01556 | 39866 ft | 446 kts | 289° |
| 2026-04-24 07:02 | 24.30406 | 57.95130 | 39867 ft | 445 kts | 289° |
| 2026-04-24 07:02 | 24.32409 | 57.88703 | 39866 ft | 445 kts | 289° |
| 2026-04-24 07:03 | 24.34407 | 57.82284 | 39864 ft | 444 kts | 289° |
| 2026-04-24 07:03 | 24.36397 | 57.75878 | 39869 ft | 444 kts | 289° |
| 2026-04-24 07:04 | 24.38385 | 57.69467 | 39869 ft | 443 kts | 289° |
| 2026-04-24 07:04 | 24.40354 | 57.63106 | 39867 ft | 443 kts | 289° |
| 2026-04-24 07:05 | 24.42330 | 57.56714 | 39863 ft | 443 kts | 289° |
| 2026-04-24 07:05 | 24.44305 | 57.50315 | 39864 ft | 442 kts | 289° |
| 2026-04-24 07:06 | 24.46278 | 57.43924 | 39866 ft | 442 kts | 289° |
| 2026-04-24 07:06 | 24.48252 | 57.37524 | 39868 ft | 442 kts | 289° |
| 2026-04-24 07:07 | 24.50219 | 57.31135 | 39867 ft | 441 kts | 289° |
| 2026-04-24 07:07 | 24.53158 | 57.21564 | 39870 ft | 441 kts | 289° |
| 2026-04-24 07:08 | 24.55111 | 57.15191 | 39861 ft | 437 kts | 289° |
| 2026-04-24 07:08 | 24.57019 | 57.08954 | 39858 ft | 431 kts | 289° |
| 2026-04-24 07:09 | 24.58920 | 57.02730 | 39867 ft | 429 kts | 289° |
| 2026-04-24 07:09 | 24.60813 | 56.96522 | 39872 ft | 427 kts | 289° |
| 2026-04-24 07:10 | 24.62699 | 56.90331 | 39873 ft | 427 kts | 289° |
| 2026-04-24 07:10 | 24.64466 | 56.84093 | 39872 ft | 428 kts | 284° |
| 2026-04-24 07:11 | 24.65468 | 56.77630 | 39870 ft | 429 kts | 279° |
| 2026-04-24 07:11 | 24.66326 | 56.71122 | 39869 ft | 430 kts | 279° |
| 2026-04-24 07:12 | 24.67208 | 56.64611 | 39871 ft | 431 kts | 280° |
| 2026-04-24 07:12 | 24.68123 | 56.58095 | 39875 ft | 431 kts | 283° |
| 2026-04-24 07:13 | 24.70144 | 56.51916 | 39892 ft | 430 kts | 295° |
| 2026-04-24 07:13 | 24.73296 | 56.46332 | 39892 ft | 432 kts | 306° |
| 2026-04-24 07:14 | 24.77023 | 56.41203 | 39891 ft | 432 kts | 306° |
| 2026-04-24 07:14 | 24.80698 | 56.35981 | 39891 ft | 431 kts | 305° |
| 2026-04-24 07:15 | 24.84252 | 56.30675 | 39892 ft | 430 kts | 304° |
| 2026-04-24 07:15 | 24.87774 | 56.25352 | 39899 ft | 429 kts | 302° |
| 2026-04-24 07:16 | 24.90764 | 56.19684 | 39899 ft | 428 kts | 298° |
| 2026-04-24 07:16 | 24.93656 | 56.13951 | 39900 ft | 427 kts | 298° |
| 2026-04-24 07:17 | 24.96537 | 56.08289 | 39722 ft | 419 kts | 297° |
| 2026-04-24 07:17 | 24.97765 | 56.05423 | 39471 ft | 408 kts | 290° |
| 2026-04-24 07:17 | 24.98513 | 56.02442 | 39113 ft | 403 kts | 281° |
| 2026-04-24 07:18 | 24.98758 | 55.99358 | 38522 ft | 406 kts | 272° |
| 2026-04-24 07:18 | 24.98470 | 55.96247 | 37858 ft | 411 kts | 262° |
| 2026-04-24 07:18 | 24.97657 | 55.93206 | 37209 ft | 416 kts | 252° |
| 2026-04-24 07:18 | 24.96841 | 55.91285 | 36784 ft | 420 kts | 246° |
| 2026-04-24 07:19 | 24.95213 | 55.88592 | 36162 ft | 426 kts | 236° |
| 2026-04-24 07:19 | 24.93145 | 55.86219 | 35555 ft | 432 kts | 226° |
| 2026-04-24 07:19 | 24.90705 | 55.84255 | 34964 ft | 438 kts | 216° |
| 2026-04-24 07:19 | 24.87005 | 55.82382 | 34211 ft | 446 kts | 202° |
| 2026-04-24 07:20 | 24.83980 | 55.81590 | 33613 ft | 451 kts | 192° |
| 2026-04-24 07:20 | 24.80831 | 55.81367 | 32965 ft | 455 kts | 182° |
| 2026-04-24 07:20 | 24.77723 | 55.81704 | 32129 ft | 444 kts | 173° |
| 2026-04-24 07:20 | 24.75719 | 55.82244 | 31528 ft | 437 kts | 166° |
| 2026-04-24 07:21 | 24.72968 | 55.83471 | 30695 ft | 427 kts | 155° |
| 2026-04-24 07:21 | 24.70480 | 55.85195 | 29858 ft | 419 kts | 144° |
| 2026-04-24 07:21 | 24.68358 | 55.87339 | 28925 ft | 410 kts | 133° |
| 2026-04-24 07:21 | 24.66666 | 55.89823 | 28010 ft | 402 kts | 122° |
| 2026-04-24 07:22 | 24.65453 | 55.92557 | 27140 ft | 394 kts | 110° |
| 2026-04-24 07:22 | 24.64786 | 55.95441 | 26282 ft | 387 kts | 97° |
| 2026-04-24 07:22 | 24.64740 | 55.98368 | 25453 ft | 379 kts | 82° |
| 2026-04-24 07:22 | 24.65353 | 56.01140 | 24646 ft | 371 kts | 66° |
| 2026-04-24 07:23 | 24.66619 | 56.03570 | 23868 ft | 362 kts | 49° |
| 2026-04-24 07:23 | 24.68447 | 56.05416 | 23012 ft | 353 kts | 30° |
| 2026-04-24 07:23 | 24.70654 | 56.06489 | 22131 ft | 344 kts | 12° |
| 2026-04-24 07:23 | 24.72970 | 56.07025 | 21283 ft | 338 kts | 7° |
| 2026-04-24 07:24 | 24.75285 | 56.07412 | 20458 ft | 335 kts | 6° |
| 2026-04-24 07:24 | 24.77552 | 56.07751 | 19641 ft | 331 kts | 5° |
| 2026-04-24 07:24 | 24.79861 | 56.08082 | 18832 ft | 328 kts | 5° |
| 2026-04-24 07:24 | 24.82090 | 56.08394 | 18050 ft | 325 kts | 5° |
| 2026-04-24 07:25 | 24.84325 | 56.08702 | 17147 ft | 322 kts | 5° |
| 2026-04-24 07:25 | 24.86537 | 56.08999 | 16279 ft | 317 kts | 3° |
| 2026-04-24 07:25 | 24.88688 | 56.08780 | 15411 ft | 309 kts | 338° |
| 2026-04-24 07:25 | 24.90483 | 56.07573 | 14602 ft | 300 kts | 315° |
| 2026-04-24 07:26 | 24.91777 | 56.05811 | 13809 ft | 294 kts | 299° |
| 2026-04-24 07:26 | 24.92719 | 56.03828 | 12951 ft | 291 kts | 295° |
| 2026-04-24 07:26 | 24.93584 | 56.01824 | 12084 ft | 288 kts | 294° |
| 2026-04-24 07:26 | 24.94430 | 55.99827 | 11258 ft | 286 kts | 293° |
| 2026-04-24 07:27 | 24.95271 | 55.97850 | 10431 ft | 284 kts | 294° |
| 2026-04-24 07:27 | 24.96113 | 55.95893 | 9624 ft | 281 kts | 294° |
| 2026-04-24 07:27 | 24.96950 | 55.93954 | 8755 ft | 279 kts | 294° |
| 2026-04-24 07:27 | 24.97785 | 55.92026 | 7916 ft | 277 kts | 294° |
| 2026-04-24 07:28 | 24.98615 | 55.90123 | 7212 ft | 273 kts | 294° |
| 2026-04-24 07:28 | 24.99431 | 55.88256 | 6561 ft | 267 kts | 294° |
| 2026-04-24 07:28 | 25.00232 | 55.86422 | 5825 ft | 265 kts | 294° |
| 2026-04-24 07:28 | 25.01029 | 55.84595 | 5071 ft | 263 kts | 295° |
| 2026-04-24 07:29 | 25.01821 | 55.82780 | 4327 ft | 263 kts | 295° |
| 2026-04-24 07:29 | 25.02612 | 55.80974 | 3623 ft | 260 kts | 295° |
| 2026-04-24 07:29 | 25.03130 | 55.79789 | 3162 ft | 258 kts | 295° |
| 2026-04-24 07:30 | 25.03145 | 55.79755 | 3144 ft | 258 kts | 295° |
| 2026-04-24 07:30 | 25.03391 | 55.79190 | 2928 ft | 257 kts | 295° |
| 2026-04-24 07:30 | 25.04157 | 55.77435 | 2417 ft | 255 kts | 296° |
| 2026-04-24 07:30 | 25.04936 | 55.75653 | 2240 ft | 261 kts | 296° |
| 2026-04-24 07:31 | 25.05717 | 55.73861 | 2063 ft | 258 kts | 296° |
| 2026-04-24 07:31 | 25.06483 | 55.72105 | 2005 ft | 248 kts | 296° |
| 2026-04-24 07:31 | 25.07213 | 55.70427 | 1983 ft | 237 kts | 296° |
| 2026-04-24 07:31 | 25.07906 | 55.68837 | 1978 ft | 224 kts | 296° |
| 2026-04-24 07:32 | 25.08564 | 55.67333 | 1980 ft | 212 kts | 296° |
| 2026-04-24 07:32 | 25.09175 | 55.65910 | 1964 ft | 196 kts | 296° |
| 2026-04-24 07:32 | 25.09783 | 55.64586 | 2024 ft | 194 kts | 299° |
| 2026-04-24 07:32 | 25.10437 | 55.63305 | 1997 ft | 193 kts | 301° |
| 2026-04-24 07:33 | 25.11118 | 55.62037 | 1989 ft | 191 kts | 301° |
| 2026-04-24 07:33 | 25.11817 | 55.60763 | 2005 ft | 192 kts | 302° |
| 2026-04-24 07:33 | 25.12506 | 55.59514 | 2001 ft | 195 kts | 302° |
| 2026-04-24 07:33 | 25.13214 | 55.58240 | 1993 ft | 194 kts | 302° |
| 2026-04-24 07:34 | 25.13930 | 55.56942 | 1986 ft | 197 kts | 302° |
| 2026-04-24 07:34 | 25.14627 | 55.55682 | 1991 ft | 194 kts | 303° |
| 2026-04-24 07:34 | 25.15333 | 55.54408 | 1995 ft | 193 kts | 302° |
| 2026-04-24 07:34 | 25.16043 | 55.53144 | 1990 ft | 194 kts | 303° |
| 2026-04-24 07:35 | 25.16753 | 55.51861 | 1991 ft | 198 kts | 302° |
| 2026-04-24 07:35 | 25.17458 | 55.50574 | 2005 ft | 191 kts | 303° |
| 2026-04-24 07:35 | 25.18136 | 55.49344 | 1988 ft | 182 kts | 303° |
| 2026-04-24 07:35 | 25.18795 | 55.48151 | 1803 ft | 182 kts | 302° |
| 2026-04-24 07:36 | 25.19455 | 55.46957 | 1583 ft | 182 kts | 303° |
| 2026-04-24 07:36 | 25.20102 | 55.45790 | 1328 ft | 173 kts | 304° |
| 2026-04-24 07:36 | 25.20707 | 55.44694 | 1110 ft | 161 kts | 304° |
| 2026-04-24 07:36 | 25.21273 | 55.43671 | 921 ft | 153 kts | 305° |
| 2026-04-24 07:37 | 25.21815 | 55.42692 | 739 ft | 146 kts | 304° |
| 2026-04-24 07:37 | 25.22349 | 55.41720 | 560 ft | 147 kts | 303° |
| 2026-04-24 07:37 | 25.22862 | 55.40813 | 386 ft | 136 kts | 303° |
| 2026-04-24 07:37 | 25.23361 | 55.39940 | 207 ft | 132 kts | 299° |
| 2026-04-24 07:38 | 25.23830 | 55.39062 | 87 ft | 133 kts | 303° |
| 2026-04-24 07:38 | 25.24258 | 55.38297 | 51 ft | 97 kts | 302° |
| 2026-04-24 07:38 | 25.24520 | 55.37823 | 46 ft | 41 kts | 302° |
| 2026-04-24 07:38 | 25.24593 | 55.37653 | 43 ft | 24 kts | 287° |
| 2026-04-24 07:39 | 25.24618 | 55.37475 | 40 ft | 19 kts | 271° |
| 2026-04-24 07:39 | 25.24555 | 55.37416 | 40 ft | 10 kts | 157° |
| 2026-04-24 07:39 | 25.24531 | 55.37441 | 40 ft | 0 kts | 124° |
| 2026-04-24 07:39 | 25.24529 | 55.37445 | 40 ft | 1 kts | 124° |